sensor_id;sensor_type;location;lat;lon;timestamp;P1;durP1;ratioP1;P2;durP2;ratioP2
24389;SDS011;12510;56.468;-3.004;2023-08-12T00:01:32;14.43;;;4.40;;
24389;SDS011;12510;56.468;-3.004;2023-08-12T00:03:58;16.23;;;5.07;;
24389;SDS011;12510;56.468;-3.004;2023-08-12T00:06:24;13.52;;;4.63;;
24389;SDS011;12510;56.468;-3.004;2023-08-12T00:08:52;12.38;;;4.57;;
24389;SDS011;12510;56.468;-3.004;2023-08-12T00:11:18;14.73;;;4.63;;
24389;SDS011;12510;56.468;-3.004;2023-08-12T00:13:44;13.35;;;4.43;;
24389;SDS011;12510;56.468;-3.004;2023-08-12T00:16:11;12.32;;;4.72;;
24389;SDS011;12510;56.468;-3.004;2023-08-12T00:18:37;17.70;;;4.65;;
24389;SDS011;12510;56.468;-3.004;2023-08-12T00:21:07;13.20;;;5.13;;
24389;SDS011;12510;56.468;-3.004;2023-08-12T00:23:39;15.30;;;5.32;;
24389;SDS011;12510;56.468;-3.004;2023-08-12T00:26:07;14.77;;;5.22;;
24389;SDS011;12510;56.468;-3.004;2023-08-12T00:28:34;16.58;;;5.47;;
24389;SDS011;12510;56.468;-3.004;2023-08-12T00:31:00;14.45;;;4.57;;
24389;SDS011;12510;56.468;-3.004;2023-08-12T00:33:27;15.38;;;4.50;;
24389;SDS011;12510;56.468;-3.004;2023-08-12T00:35:53;14.07;;;4.50;;
24389;SDS011;12510;56.468;-3.004;2023-08-12T00:38:20;16.98;;;5.43;;
24389;SDS011;12510;56.468;-3.004;2023-08-12T00:40:47;14.95;;;4.93;;
24389;SDS011;12510;56.468;-3.004;2023-08-12T00:43:13;11.38;;;5.32;;
24389;SDS011;12510;56.468;-3.004;2023-08-12T00:45:40;18.00;;;4.85;;
24389;SDS011;12510;56.468;-3.004;2023-08-12T00:48:07;15.10;;;4.95;;
24389;SDS011;12510;56.468;-3.004;2023-08-12T00:50:35;16.27;;;5.60;;
24389;SDS011;12510;56.468;-3.004;2023-08-12T00:53:03;16.25;;;4.63;;
24389;SDS011;12510;56.468;-3.004;2023-08-12T00:55:33;14.35;;;4.80;;
24389;SDS011;12510;56.468;-3.004;2023-08-12T00:58:01;15.60;;;4.60;;
24389;SDS011;12510;56.468;-3.004;2023-08-12T01:00:28;15.55;;;4.90;;
24389;SDS011;12510;56.468;-3.004;2023-08-12T01:02:55;14.05;;;5.40;;
24389;SDS011;12510;56.468;-3.004;2023-08-12T01:05:22;17.13;;;5.72;;
24389;SDS011;12510;56.468;-3.004;2023-08-12T01:07:49;19.33;;;5.25;;
24389;SDS011;12510;56.468;-3.004;2023-08-12T01:10:15;20.73;;;4.93;;
24389;SDS011;12510;56.468;-3.004;2023-08-12T01:12:50;15.85;;;4.40;;
24389;SDS011;12510;56.468;-3.004;2023-08-12T01:15:24;13.15;;;4.15;;
24389;SDS011;12510;56.468;-3.004;2023-08-12T01:17:53;13.80;;;4.07;;
24389;SDS011;12510;56.468;-3.004;2023-08-12T01:20:21;15.02;;;4.53;;
24389;SDS011;12510;56.468;-3.004;2023-08-12T01:22:57;12.60;;;4.22;;
24389;SDS011;12510;56.468;-3.004;2023-08-12T01:25:33;15.20;;;5.38;;
24389;SDS011;12510;56.468;-3.004;2023-08-12T01:27:59;11.70;;;4.57;;
24389;SDS011;12510;56.468;-3.004;2023-08-12T01:30:26;14.80;;;4.28;;
24389;SDS011;12510;56.468;-3.004;2023-08-12T01:33:01;17.25;;;6.15;;
24389;SDS011;12510;56.468;-3.004;2023-08-12T01:35:41;14.98;;;4.82;;
24389;SDS011;12510;56.468;-3.004;2023-08-12T01:38:17;16.40;;;4.72;;
24389;SDS011;12510;56.468;-3.004;2023-08-12T01:40:45;15.27;;;4.28;;
24389;SDS011;12510;56.468;-3.004;2023-08-12T01:43:13;15.32;;;3.88;;
24389;SDS011;12510;56.468;-3.004;2023-08-12T01:45:41;14.85;;;5.40;;
24389;SDS011;12510;56.468;-3.004;2023-08-12T01:48:08;14.00;;;4.93;;
24389;SDS011;12510;56.468;-3.004;2023-08-12T01:50:34;14.80;;;4.13;;
24389;SDS011;12510;56.468;-3.004;2023-08-12T01:53:00;13.10;;;4.53;;
24389;SDS011;12510;56.468;-3.004;2023-08-12T01:55:29;13.98;;;4.28;;
24389;SDS011;12510;56.468;-3.004;2023-08-12T01:57:56;13.93;;;4.97;;
24389;SDS011;12510;56.468;-3.004;2023-08-12T02:00:22;13.32;;;3.97;;
24389;SDS011;12510;56.468;-3.004;2023-08-12T02:02:49;13.60;;;4.13;;
24389;SDS011;12510;56.468;-3.004;2023-08-12T02:05:15;15.60;;;5.03;;
24389;SDS011;12510;56.468;-3.004;2023-08-12T02:07:42;11.27;;;4.22;;
24389;SDS011;12510;56.468;-3.004;2023-08-12T02:10:09;10.88;;;3.50;;
24389;SDS011;12510;56.468;-3.004;2023-08-12T02:12:35;9.55;;;3.85;;
24389;SDS011;12510;56.468;-3.004;2023-08-12T02:15:02;10.65;;;3.83;;
24389;SDS011;12510;56.468;-3.004;2023-08-12T02:17:29;14.88;;;4.68;;
24389;SDS011;12510;56.468;-3.004;2023-08-12T02:19:55;12.40;;;4.22;;
24389;SDS011;12510;56.468;-3.004;2023-08-12T02:22:22;12.93;;;4.80;;
24389;SDS011;12510;56.468;-3.004;2023-08-12T02:24:48;16.90;;;6.63;;
24389;SDS011;12510;56.468;-3.004;2023-08-12T02:27:15;13.25;;;4.78;;
24389;SDS011;12510;56.468;-3.004;2023-08-12T02:29:41;16.10;;;5.18;;
24389;SDS011;12510;56.468;-3.004;2023-08-12T02:32:08;15.35;;;4.85;;
24389;SDS011;12510;56.468;-3.004;2023-08-12T02:34:34;13.80;;;4.15;;
24389;SDS011;12510;56.468;-3.004;2023-08-12T02:37:01;12.25;;;4.72;;
24389;SDS011;12510;56.468;-3.004;2023-08-12T02:39:29;12.48;;;4.88;;
24389;SDS011;12510;56.468;-3.004;2023-08-12T02:41:56;11.38;;;3.97;;
24389;SDS011;12510;56.468;-3.004;2023-08-12T02:44:22;15.00;;;4.45;;
24389;SDS011;12510;56.468;-3.004;2023-08-12T02:46:49;14.23;;;4.53;;
24389;SDS011;12510;56.468;-3.004;2023-08-12T02:49:15;11.73;;;4.20;;
24389;SDS011;12510;56.468;-3.004;2023-08-12T02:51:42;14.60;;;4.35;;
24389;SDS011;12510;56.468;-3.004;2023-08-12T02:54:08;15.00;;;4.45;;
24389;SDS011;12510;56.468;-3.004;2023-08-12T02:56:35;9.73;;;3.80;;
24389;SDS011;12510;56.468;-3.004;2023-08-12T02:59:01;10.77;;;3.92;;
24389;SDS011;12510;56.468;-3.004;2023-08-12T03:01:28;11.23;;;3.72;;
24389;SDS011;12510;56.468;-3.004;2023-08-12T03:03:54;13.70;;;4.65;;
24389;SDS011;12510;56.468;-3.004;2023-08-12T03:06:21;12.48;;;4.93;;
24389;SDS011;12510;56.468;-3.004;2023-08-12T03:08:47;14.60;;;4.45;;
24389;SDS011;12510;56.468;-3.004;2023-08-12T03:11:15;10.13;;;3.95;;
24389;SDS011;12510;56.468;-3.004;2023-08-12T03:13:42;11.73;;;4.20;;
24389;SDS011;12510;56.468;-3.004;2023-08-12T03:16:12;13.45;;;4.97;;
24389;SDS011;12510;56.468;-3.004;2023-08-12T03:18:42;12.13;;;4.05;;
24389;SDS011;12510;56.468;-3.004;2023-08-12T03:21:08;9.00;;;4.07;;
24389;SDS011;12510;56.468;-3.004;2023-08-12T03:23:35;11.48;;;3.65;;
24389;SDS011;12510;56.468;-3.004;2023-08-12T03:26:04;13.15;;;4.15;;
24389;SDS011;12510;56.468;-3.004;2023-08-12T03:28:31;12.10;;;3.85;;
24389;SDS011;12510;56.468;-3.004;2023-08-12T03:30:58;17.13;;;4.72;;
24389;SDS011;12510;56.468;-3.004;2023-08-12T03:33:25;12.82;;;4.22;;
24389;SDS011;12510;56.468;-3.004;2023-08-12T03:35:53;10.43;;;4.00;;
24389;SDS011;12510;56.468;-3.004;2023-08-12T03:38:19;12.20;;;4.18;;
24389;SDS011;12510;56.468;-3.004;2023-08-12T03:40:46;11.75;;;3.63;;
24389;SDS011;12510;56.468;-3.004;2023-08-12T03:43:15;16.33;;;5.37;;
24389;SDS011;12510;56.468;-3.004;2023-08-12T03:45:43;13.05;;;4.28;;
24389;SDS011;12510;56.468;-3.004;2023-08-12T03:48:12;11.88;;;4.57;;
24389;SDS011;12510;56.468;-3.004;2023-08-12T03:50:39;11.25;;;3.80;;
24389;SDS011;12510;56.468;-3.004;2023-08-12T03:53:07;15.15;;;3.95;;
24389;SDS011;12510;56.468;-3.004;2023-08-12T03:58:03;10.80;;;4.38;;
24389;SDS011;12510;56.468;-3.004;2023-08-12T04:00:31;13.73;;;4.70;;
24389;SDS011;12510;56.468;-3.004;2023-08-12T04:03:00;14.20;;;4.45;;
24389;SDS011;12510;56.468;-3.004;2023-08-12T04:05:27;11.18;;;3.60;;
24389;SDS011;12510;56.468;-3.004;2023-08-12T04:07:53;12.13;;;3.55;;
24389;SDS011;12510;56.468;-3.004;2023-08-12T04:10:20;10.93;;;3.97;;
24389;SDS011;12510;56.468;-3.004;2023-08-12T04:12:46;11.95;;;3.95;;
24389;SDS011;12510;56.468;-3.004;2023-08-12T04:15:13;14.25;;;3.60;;
24389;SDS011;12510;56.468;-3.004;2023-08-12T04:17:39;11.80;;;4.30;;
24389;SDS011;12510;56.468;-3.004;2023-08-12T04:20:07;14.02;;;3.75;;
24389;SDS011;12510;56.468;-3.004;2023-08-12T04:22:35;11.10;;;3.33;;
24389;SDS011;12510;56.468;-3.004;2023-08-12T04:25:02;8.43;;;2.90;;
24389;SDS011;12510;56.468;-3.004;2023-08-12T04:27:29;9.30;;;2.78;;
24389;SDS011;12510;56.468;-3.004;2023-08-12T04:29:57;11.88;;;4.05;;
24389;SDS011;12510;56.468;-3.004;2023-08-12T04:32:24;7.82;;;3.47;;
24389;SDS011;12510;56.468;-3.004;2023-08-12T04:34:50;10.75;;;3.20;;
24389;SDS011;12510;56.468;-3.004;2023-08-12T04:37:17;11.73;;;3.38;;
24389;SDS011;12510;56.468;-3.004;2023-08-12T04:39:44;11.52;;;3.67;;
24389;SDS011;12510;56.468;-3.004;2023-08-12T04:42:11;12.38;;;3.35;;
24389;SDS011;12510;56.468;-3.004;2023-08-12T04:44:38;11.60;;;4.05;;
24389;SDS011;12510;56.468;-3.004;2023-08-12T04:47:05;13.10;;;3.85;;
24389;SDS011;12510;56.468;-3.004;2023-08-12T04:49:34;9.85;;;3.90;;
24389;SDS011;12510;56.468;-3.004;2023-08-12T04:52:01;12.80;;;4.43;;
24389;SDS011;12510;56.468;-3.004;2023-08-12T04:54:27;7.20;;;3.60;;
24389;SDS011;12510;56.468;-3.004;2023-08-12T04:56:54;11.10;;;3.70;;
24389;SDS011;12510;56.468;-3.004;2023-08-12T04:59:22;9.52;;;3.33;;
24389;SDS011;12510;56.468;-3.004;2023-08-12T05:01:48;7.95;;;2.90;;
24389;SDS011;12510;56.468;-3.004;2023-08-12T05:04:15;12.05;;;3.42;;
24389;SDS011;12510;56.468;-3.004;2023-08-12T05:06:41;11.15;;;3.83;;
24389;SDS011;12510;56.468;-3.004;2023-08-12T05:09:08;7.95;;;3.08;;
24389;SDS011;12510;56.468;-3.004;2023-08-12T05:11:34;9.57;;;3.33;;
24389;SDS011;12510;56.468;-3.004;2023-08-12T05:14:01;8.52;;;3.08;;
24389;SDS011;12510;56.468;-3.004;2023-08-12T05:16:27;10.32;;;3.63;;
24389;SDS011;12510;56.468;-3.004;2023-08-12T05:18:56;7.35;;;2.72;;
24389;SDS011;12510;56.468;-3.004;2023-08-12T05:21:23;10.00;;;3.00;;
24389;SDS011;12510;56.468;-3.004;2023-08-12T05:23:50;8.90;;;3.17;;
24389;SDS011;12510;56.468;-3.004;2023-08-12T05:26:16;10.75;;;3.40;;
24389;SDS011;12510;56.468;-3.004;2023-08-12T05:28:43;8.23;;;3.30;;
24389;SDS011;12510;56.468;-3.004;2023-08-12T05:31:09;10.73;;;3.15;;
24389;SDS011;12510;56.468;-3.004;2023-08-12T05:33:35;9.93;;;3.10;;
24389;SDS011;12510;56.468;-3.004;2023-08-12T05:36:02;8.98;;;3.03;;
24389;SDS011;12510;56.468;-3.004;2023-08-12T05:38:29;8.30;;;2.78;;
24389;SDS011;12510;56.468;-3.004;2023-08-12T05:40:55;5.85;;;2.55;;
24389;SDS011;12510;56.468;-3.004;2023-08-12T05:43:22;6.72;;;3.38;;
24389;SDS011;12510;56.468;-3.004;2023-08-12T05:45:48;8.07;;;2.83;;
24389;SDS011;12510;56.468;-3.004;2023-08-12T05:48:15;7.00;;;2.95;;
24389;SDS011;12510;56.468;-3.004;2023-08-12T05:50:41;7.15;;;2.60;;
24389;SDS011;12510;56.468;-3.004;2023-08-12T05:53:09;5.63;;;2.53;;
24389;SDS011;12510;56.468;-3.004;2023-08-12T05:55:35;8.18;;;3.33;;
24389;SDS011;12510;56.468;-3.004;2023-08-12T05:58:02;8.85;;;2.60;;
24389;SDS011;12510;56.468;-3.004;2023-08-12T06:00:28;7.47;;;2.90;;
24389;SDS011;12510;56.468;-3.004;2023-08-12T06:02:55;7.72;;;3.40;;
24389;SDS011;12510;56.468;-3.004;2023-08-12T06:05:21;7.28;;;2.58;;
24389;SDS011;12510;56.468;-3.004;2023-08-12T06:07:48;8.43;;;3.08;;
24389;SDS011;12510;56.468;-3.004;2023-08-12T06:10:14;7.50;;;2.63;;
24389;SDS011;12510;56.468;-3.004;2023-08-12T06:12:40;8.48;;;2.80;;
24389;SDS011;12510;56.468;-3.004;2023-08-12T06:15:07;6.38;;;3.00;;
24389;SDS011;12510;56.468;-3.004;2023-08-12T06:17:33;9.00;;;3.47;;
24389;SDS011;12510;56.468;-3.004;2023-08-12T06:20:00;8.60;;;3.03;;
24389;SDS011;12510;56.468;-3.004;2023-08-12T06:22:26;7.53;;;2.95;;
24389;SDS011;12510;56.468;-3.004;2023-08-12T06:24:53;8.18;;;3.08;;
24389;SDS011;12510;56.468;-3.004;2023-08-12T06:27:19;5.63;;;2.42;;
24389;SDS011;12510;56.468;-3.004;2023-08-12T06:29:46;7.60;;;2.92;;
24389;SDS011;12510;56.468;-3.004;2023-08-12T06:32:13;7.05;;;2.92;;
24389;SDS011;12510;56.468;-3.004;2023-08-12T06:34:40;7.40;;;2.47;;
24389;SDS011;12510;56.468;-3.004;2023-08-12T06:37:07;10.88;;;2.95;;
24389;SDS011;12510;56.468;-3.004;2023-08-12T06:39:34;6.95;;;2.80;;
24389;SDS011;12510;56.468;-3.004;2023-08-12T06:42:00;6.47;;;2.35;;
24389;SDS011;12510;56.468;-3.004;2023-08-12T06:44:26;5.72;;;2.15;;
24389;SDS011;12510;56.468;-3.004;2023-08-12T06:46:53;6.55;;;2.28;;
24389;SDS011;12510;56.468;-3.004;2023-08-12T06:49:19;7.50;;;2.95;;
24389;SDS011;12510;56.468;-3.004;2023-08-12T06:51:46;6.38;;;2.47;;
24389;SDS011;12510;56.468;-3.004;2023-08-12T06:54:12;12.75;;;4.35;;
24389;SDS011;12510;56.468;-3.004;2023-08-12T06:56:38;7.28;;;2.60;;
24389;SDS011;12510;56.468;-3.004;2023-08-12T06:59:05;7.68;;;2.83;;
24389;SDS011;12510;56.468;-3.004;2023-08-12T07:01:31;7.95;;;2.85;;
24389;SDS011;12510;56.468;-3.004;2023-08-12T07:03:58;7.68;;;2.65;;
24389;SDS011;12510;56.468;-3.004;2023-08-12T07:06:24;7.35;;;2.47;;
24389;SDS011;12510;56.468;-3.004;2023-08-12T07:08:51;10.27;;;2.97;;
24389;SDS011;12510;56.468;-3.004;2023-08-12T07:11:17;9.32;;;3.10;;
24389;SDS011;12510;56.468;-3.004;2023-08-12T07:13:43;10.15;;;3.03;;
24389;SDS011;12510;56.468;-3.004;2023-08-12T07:16:12;9.18;;;3.22;;
24389;SDS011;12510;56.468;-3.004;2023-08-12T07:18:38;9.00;;;3.33;;
24389;SDS011;12510;56.468;-3.004;2023-08-12T07:21:05;7.20;;;2.47;;
24389;SDS011;12510;56.468;-3.004;2023-08-12T07:23:31;8.20;;;3.05;;
24389;SDS011;12510;56.468;-3.004;2023-08-12T07:25:58;10.85;;;3.60;;
24389;SDS011;12510;56.468;-3.004;2023-08-12T07:28:24;8.00;;;3.10;;
24389;SDS011;12510;56.468;-3.004;2023-08-12T07:30:51;9.98;;;3.08;;
24389;SDS011;12510;56.468;-3.004;2023-08-12T07:33:19;11.18;;;3.47;;
24389;SDS011;12510;56.468;-3.004;2023-08-12T07:35:47;12.15;;;3.88;;
24389;SDS011;12510;56.468;-3.004;2023-08-12T07:38:13;13.13;;;4.28;;
24389;SDS011;12510;56.468;-3.004;2023-08-12T07:40:40;9.93;;;4.70;;
24389;SDS011;12510;56.468;-3.004;2023-08-12T07:43:06;11.55;;;3.35;;
24389;SDS011;12510;56.468;-3.004;2023-08-12T07:45:33;12.45;;;4.05;;
24389;SDS011;12510;56.468;-3.004;2023-08-12T07:47:59;6.93;;;3.03;;
24389;SDS011;12510;56.468;-3.004;2023-08-12T07:50:25;11.25;;;3.50;;
24389;SDS011;12510;56.468;-3.004;2023-08-12T07:52:52;9.13;;;2.97;;
24389;SDS011;12510;56.468;-3.004;2023-08-12T07:55:18;8.35;;;3.17;;
24389;SDS011;12510;56.468;-3.004;2023-08-12T07:57:45;7.90;;;2.45;;
24389;SDS011;12510;56.468;-3.004;2023-08-12T08:00:11;10.90;;;3.17;;
24389;SDS011;12510;56.468;-3.004;2023-08-12T08:02:38;8.82;;;3.00;;
24389;SDS011;12510;56.468;-3.004;2023-08-12T08:05:05;6.13;;;2.63;;
24389;SDS011;12510;56.468;-3.004;2023-08-12T08:07:32;10.45;;;3.13;;
24389;SDS011;12510;56.468;-3.004;2023-08-12T08:09:58;8.43;;;2.83;;
24389;SDS011;12510;56.468;-3.004;2023-08-12T08:12:25;9.23;;;3.72;;
24389;SDS011;12510;56.468;-3.004;2023-08-12T08:14:51;9.77;;;2.78;;
24389;SDS011;12510;56.468;-3.004;2023-08-12T08:17:17;8.02;;;2.58;;
24389;SDS011;12510;56.468;-3.004;2023-08-12T08:19:44;7.43;;;2.75;;
24389;SDS011;12510;56.468;-3.004;2023-08-12T08:22:10;9.10;;;2.50;;
24389;SDS011;12510;56.468;-3.004;2023-08-12T08:24:37;7.03;;;2.45;;
24389;SDS011;12510;56.468;-3.004;2023-08-12T08:27:04;9.65;;;2.78;;
24389;SDS011;12510;56.468;-3.004;2023-08-12T08:29:30;10.43;;;3.47;;
24389;SDS011;12510;56.468;-3.004;2023-08-12T08:31:57;10.00;;;3.42;;
24389;SDS011;12510;56.468;-3.004;2023-08-12T08:34:23;16.60;;;4.00;;
24389;SDS011;12510;56.468;-3.004;2023-08-12T08:36:50;8.18;;;3.38;;
24389;SDS011;12510;56.468;-3.004;2023-08-12T08:39:16;9.02;;;2.92;;
24389;SDS011;12510;56.468;-3.004;2023-08-12T08:41:43;13.25;;;3.30;;
24389;SDS011;12510;56.468;-3.004;2023-08-12T08:44:13;11.65;;;3.35;;
24389;SDS011;12510;56.468;-3.004;2023-08-12T08:46:43;9.30;;;3.50;;
24389;SDS011;12510;56.468;-3.004;2023-08-12T08:49:11;7.70;;;3.25;;
24389;SDS011;12510;56.468;-3.004;2023-08-12T08:51:39;7.78;;;2.78;;
24389;SDS011;12510;56.468;-3.004;2023-08-12T08:54:07;11.40;;;3.60;;
24389;SDS011;12510;56.468;-3.004;2023-08-12T08:56:34;5.40;;;2.30;;
24389;SDS011;12510;56.468;-3.004;2023-08-12T08:59:01;7.78;;;2.60;;
24389;SDS011;12510;56.468;-3.004;2023-08-12T09:01:27;9.57;;;3.08;;
24389;SDS011;12510;56.468;-3.004;2023-08-12T09:03:55;5.82;;;2.05;;
24389;SDS011;12510;56.468;-3.004;2023-08-12T09:06:26;6.97;;;2.80;;
24389;SDS011;12510;56.468;-3.004;2023-08-12T09:08:54;6.93;;;2.22;;
24389;SDS011;12510;56.468;-3.004;2023-08-12T09:11:21;6.10;;;2.25;;
24389;SDS011;12510;56.468;-3.004;2023-08-12T09:13:49;7.10;;;2.47;;
24389;SDS011;12510;56.468;-3.004;2023-08-12T09:16:15;7.15;;;2.42;;
24389;SDS011;12510;56.468;-3.004;2023-08-12T09:18:42;5.03;;;2.10;;
24389;SDS011;12510;56.468;-3.004;2023-08-12T09:21:10;4.55;;;2.10;;
24389;SDS011;12510;56.468;-3.004;2023-08-12T09:23:38;4.28;;;1.63;;
24389;SDS011;12510;56.468;-3.004;2023-08-12T09:26:15;3.83;;;1.60;;
24389;SDS011;12510;56.468;-3.004;2023-08-12T09:28:43;5.55;;;1.95;;
24389;SDS011;12510;56.468;-3.004;2023-08-12T09:31:26;2.75;;;1.33;;
24389;SDS011;12510;56.468;-3.004;2023-08-12T09:34:00;2.20;;;1.15;;
24389;SDS011;12510;56.468;-3.004;2023-08-12T09:36:30;4.82;;;2.03;;
24389;SDS011;12510;56.468;-3.004;2023-08-12T09:38:57;3.15;;;1.20;;
24389;SDS011;12510;56.468;-3.004;2023-08-12T09:41:24;2.58;;;1.30;;
24389;SDS011;12510;56.468;-3.004;2023-08-12T09:43:52;3.38;;;1.50;;
24389;SDS011;12510;56.468;-3.004;2023-08-12T09:46:20;4.03;;;1.13;;
24389;SDS011;12510;56.468;-3.004;2023-08-12T09:48:49;3.67;;;1.65;;
24389;SDS011;12510;56.468;-3.004;2023-08-12T09:51:18;3.55;;;1.27;;
24389;SDS011;12510;56.468;-3.004;2023-08-12T09:53:48;3.78;;;1.27;;
24389;SDS011;12510;56.468;-3.004;2023-08-12T09:56:17;2.92;;;1.15;;
24389;SDS011;12510;56.468;-3.004;2023-08-12T09:58:47;3.50;;;1.40;;
24389;SDS011;12510;56.468;-3.004;2023-08-12T10:01:14;2.20;;;1.60;;
24389;SDS011;12510;56.468;-3.004;2023-08-12T10:03:44;2.90;;;1.30;;
24389;SDS011;12510;56.468;-3.004;2023-08-12T10:06:15;2.75;;;1.40;;
24389;SDS011;12510;56.468;-3.004;2023-08-12T10:08:45;2.22;;;1.20;;
24389;SDS011;12510;56.468;-3.004;2023-08-12T10:11:12;2.20;;;1.30;;
24389;SDS011;12510;56.468;-3.004;2023-08-12T10:13:43;2.45;;;1.30;;
24389;SDS011;12510;56.468;-3.004;2023-08-12T10:16:09;3.17;;;1.40;;
24389;SDS011;12510;56.468;-3.004;2023-08-12T10:18:38;2.60;;;1.20;;
24389;SDS011;12510;56.468;-3.004;2023-08-12T10:21:09;1.63;;;1.23;;
24389;SDS011;12510;56.468;-3.004;2023-08-12T10:23:40;2.72;;;1.30;;
24389;SDS011;12510;56.468;-3.004;2023-08-12T10:26:07;1.80;;;1.13;;
24389;SDS011;12510;56.468;-3.004;2023-08-12T10:28:35;2.08;;;1.00;;
24389;SDS011;12510;56.468;-3.004;2023-08-12T10:31:05;2.05;;;1.10;;
24389;SDS011;12510;56.468;-3.004;2023-08-12T10:33:36;1.63;;;0.80;;
24389;SDS011;12510;56.468;-3.004;2023-08-12T10:36:06;2.55;;;1.42;;
24389;SDS011;12510;56.468;-3.004;2023-08-12T10:38:34;1.73;;;0.80;;
24389;SDS011;12510;56.468;-3.004;2023-08-12T10:41:16;2.53;;;0.80;;
24389;SDS011;12510;56.468;-3.004;2023-08-12T10:49:01;0.95;;;0.68;;
24389;SDS011;12510;56.468;-3.004;2023-08-12T10:51:43;1.90;;;1.30;;
24389;SDS011;12510;56.468;-3.004;2023-08-12T10:54:16;1.23;;;0.80;;
24389;SDS011;12510;56.468;-3.004;2023-08-12T11:02:32;1.17;;;0.60;;
24389;SDS011;12510;56.468;-3.004;2023-08-12T11:05:03;1.48;;;0.85;;
24389;SDS011;12510;56.468;-3.004;2023-08-12T11:07:39;1.02;;;0.60;;
24389;SDS011;12510;56.468;-3.004;2023-08-12T11:10:14;2.22;;;0.60;;
24389;SDS011;12510;56.468;-3.004;2023-08-12T11:12:49;2.15;;;1.05;;
24389;SDS011;12510;56.468;-3.004;2023-08-12T11:18:12;0.50;;;0.50;;
24389;SDS011;12510;56.468;-3.004;2023-08-12T11:20:40;0.47;;;0.40;;
24389;SDS011;12510;56.468;-3.004;2023-08-12T11:23:07;0.73;;;0.43;;
24389;SDS011;12510;56.468;-3.004;2023-08-12T11:25:35;1.67;;;0.65;;
24389;SDS011;12510;56.468;-3.004;2023-08-12T11:28:04;0.40;;;0.40;;
24389;SDS011;12510;56.468;-3.004;2023-08-12T11:30:32;0.28;;;0.20;;
24389;SDS011;12510;56.468;-3.004;2023-08-12T11:32:59;0.63;;;0.55;;
24389;SDS011;12510;56.468;-3.004;2023-08-12T11:35:26;0.55;;;0.40;;
24389;SDS011;12510;56.468;-3.004;2023-08-12T11:37:53;0.90;;;0.30;;
24389;SDS011;12510;56.468;-3.004;2023-08-12T11:40:22;0.95;;;0.40;;
24389;SDS011;12510;56.468;-3.004;2023-08-12T11:42:50;0.20;;;0.20;;
24389;SDS011;12510;56.468;-3.004;2023-08-12T11:45:22;1.23;;;0.47;;
24389;SDS011;12510;56.468;-3.004;2023-08-12T11:47:49;0.40;;;0.30;;
24389;SDS011;12510;56.468;-3.004;2023-08-12T11:50:20;0.65;;;0.32;;
24389;SDS011;12510;56.468;-3.004;2023-08-12T11:52:50;2.15;;;0.40;;
24389;SDS011;12510;56.468;-3.004;2023-08-12T11:55:18;0.73;;;0.38;;
24389;SDS011;12510;56.468;-3.004;2023-08-12T11:57:45;0.73;;;0.30;;
24389;SDS011;12510;56.468;-3.004;2023-08-12T12:00:12;0.65;;;0.30;;
24389;SDS011;12510;56.468;-3.004;2023-08-12T12:02:45;0.13;;;0.13;;
24389;SDS011;12510;56.468;-3.004;2023-08-12T12:05:11;0.80;;;0.60;;
24389;SDS011;12510;56.468;-3.004;2023-08-12T12:07:39;0.20;;;0.20;;
24389;SDS011;12510;56.468;-3.004;2023-08-12T12:10:06;0.45;;;0.40;;
24389;SDS011;12510;56.468;-3.004;2023-08-12T12:12:33;0.57;;;0.57;;
24389;SDS011;12510;56.468;-3.004;2023-08-12T12:15:04;0.73;;;0.57;;
24389;SDS011;12510;56.468;-3.004;2023-08-12T12:17:31;0.30;;;0.30;;
24389;SDS011;12510;56.468;-3.004;2023-08-12T12:19:59;0.57;;;0.28;;
24389;SDS011;12510;56.468;-3.004;2023-08-12T12:22:30;0.30;;;0.30;;
24389;SDS011;12510;56.468;-3.004;2023-08-12T12:24:59;0.45;;;0.20;;
24389;SDS011;12510;56.468;-3.004;2023-08-12T12:27:26;0.75;;;0.50;;
24389;SDS011;12510;56.468;-3.004;2023-08-12T12:29:53;0.20;;;0.20;;
24389;SDS011;12510;56.468;-3.004;2023-08-12T12:32:20;0.10;;;0.10;;
24389;SDS011;12510;56.468;-3.004;2023-08-12T12:34:47;0.90;;;0.30;;
24389;SDS011;12510;56.468;-3.004;2023-08-12T12:37:14;0.75;;;0.40;;
24389;SDS011;12510;56.468;-3.004;2023-08-12T12:39:40;1.98;;;0.70;;
24389;SDS011;12510;56.468;-3.004;2023-08-12T12:42:07;0.52;;;0.38;;
24389;SDS011;12510;56.468;-3.004;2023-08-12T12:44:35;0.60;;;0.60;;
24389;SDS011;12510;56.468;-3.004;2023-08-12T12:47:02;0.80;;;0.40;;
24389;SDS011;12510;56.468;-3.004;2023-08-12T12:49:28;1.27;;;0.63;;
24389;SDS011;12510;56.468;-3.004;2023-08-12T12:51:55;1.13;;;0.50;;
24389;SDS011;12510;56.468;-3.004;2023-08-12T12:54:22;0.38;;;0.38;;
24389;SDS011;12510;56.468;-3.004;2023-08-12T12:56:48;0.55;;;0.40;;
24389;SDS011;12510;56.468;-3.004;2023-08-12T12:59:14;0.55;;;0.35;;
24389;SDS011;12510;56.468;-3.004;2023-08-12T13:01:41;0.45;;;0.45;;
24389;SDS011;12510;56.468;-3.004;2023-08-12T13:04:08;0.57;;;0.52;;
24389;SDS011;12510;56.468;-3.004;2023-08-12T13:06:34;1.55;;;0.30;;
24389;SDS011;12510;56.468;-3.004;2023-08-12T13:09:01;0.80;;;0.80;;
24389;SDS011;12510;56.468;-3.004;2023-08-12T13:11:28;2.15;;;0.47;;
24389;SDS011;12510;56.468;-3.004;2023-08-12T13:13:54;0.13;;;0.10;;
24389;SDS011;12510;56.468;-3.004;2023-08-12T13:16:21;1.55;;;1.13;;
24389;SDS011;12510;56.468;-3.004;2023-08-12T13:18:47;0.30;;;0.30;;
24389;SDS011;12510;56.468;-3.004;2023-08-12T13:21:14;0.50;;;0.30;;
24389;SDS011;12510;56.468;-3.004;2023-08-12T13:23:41;0.50;;;0.43;;
24389;SDS011;12510;56.468;-3.004;2023-08-12T13:26:07;0.20;;;0.20;;
24389;SDS011;12510;56.468;-3.004;2023-08-12T13:28:33;0.55;;;0.30;;
24389;SDS011;12510;56.468;-3.004;2023-08-12T13:31:00;0.40;;;0.25;;
24389;SDS011;12510;56.468;-3.004;2023-08-12T13:33:26;0.45;;;0.32;;
24389;SDS011;12510;56.468;-3.004;2023-08-12T13:35:53;1.02;;;0.50;;
24389;SDS011;12510;56.468;-3.004;2023-08-12T13:38:20;0.35;;;0.20;;
24389;SDS011;12510;56.468;-3.004;2023-08-12T13:40:46;0.20;;;0.20;;
24389;SDS011;12510;56.468;-3.004;2023-08-12T13:43:12;0.45;;;0.45;;
24389;SDS011;12510;56.468;-3.004;2023-08-12T13:45:39;0.35;;;0.35;;
24389;SDS011;12510;56.468;-3.004;2023-08-12T13:48:05;0.35;;;0.35;;
24389;SDS011;12510;56.468;-3.004;2023-08-12T13:50:32;0.43;;;0.43;;
24389;SDS011;12510;56.468;-3.004;2023-08-12T13:52:58;0.40;;;0.30;;
24389;SDS011;12510;56.468;-3.004;2023-08-12T13:55:25;0.43;;;0.38;;
24389;SDS011;12510;56.468;-3.004;2023-08-12T13:57:52;0.40;;;0.40;;
24389;SDS011;12510;56.468;-3.004;2023-08-12T14:00:19;0.77;;;0.30;;
24389;SDS011;12510;56.468;-3.004;2023-08-12T14:02:46;0.50;;;0.50;;
24389;SDS011;12510;56.468;-3.004;2023-08-12T14:05:14;1.25;;;0.40;;
24389;SDS011;12510;56.468;-3.004;2023-08-12T14:07:41;0.32;;;0.32;;
24389;SDS011;12510;56.468;-3.004;2023-08-12T14:10:08;0.60;;;0.50;;
24389;SDS011;12510;56.468;-3.004;2023-08-12T14:12:34;0.50;;;0.43;;
24389;SDS011;12510;56.468;-3.004;2023-08-12T14:15:01;0.80;;;0.55;;
24389;SDS011;12510;56.468;-3.004;2023-08-12T14:17:30;1.27;;;0.47;;
24389;SDS011;12510;56.468;-3.004;2023-08-12T14:19:56;1.17;;;0.60;;
24389;SDS011;12510;56.468;-3.004;2023-08-12T14:22:24;1.05;;;0.70;;
24389;SDS011;12510;56.468;-3.004;2023-08-12T14:24:50;1.10;;;0.50;;
24389;SDS011;12510;56.468;-3.004;2023-08-12T14:27:17;2.38;;;0.70;;
24389;SDS011;12510;56.468;-3.004;2023-08-12T14:29:44;1.35;;;0.30;;
24389;SDS011;12510;56.468;-3.004;2023-08-12T14:32:11;0.38;;;0.30;;
24389;SDS011;12510;56.468;-3.004;2023-08-12T14:34:38;0.47;;;0.45;;
24389;SDS011;12510;56.468;-3.004;2023-08-12T14:37:04;0.80;;;0.52;;
24389;SDS011;12510;56.468;-3.004;2023-08-12T14:39:31;0.63;;;0.30;;
24389;SDS011;12510;56.468;-3.004;2023-08-12T14:41:57;0.70;;;0.32;;
24389;SDS011;12510;56.468;-3.004;2023-08-12T14:44:24;0.43;;;0.40;;
24389;SDS011;12510;56.468;-3.004;2023-08-12T14:46:51;0.50;;;0.40;;